Time;durP1;ratioP1;P1;durP2;ratioP2;P2;SDS_P1;SDS_P2;PMS_P1;PMS_P2;Temp;Humidity;BMP_temperature;BMP_pressure;BME280_temperature;BME280_humidity;BME280_pressure;Samples;Min_cycle;Max_cycle;Signal;HPM_P1;HPM_P2
2022/01/03 00:00:36;;;;;;;18.27;4.10;;;12.10;99.90;;;;;;4996196;28;20486;-74
2022/01/03 00:03:05;;;;;;;22.63;5.28;;;12.10;99.90;;;;;;4995901;28;20109;-74
2022/01/03 00:05:31;;;;;;;25.10;5.07;;;12.10;99.90;;;;;;4996061;28;20055;-74
2022/01/03 00:07:58;;;;;;;22.20;4.25;;;12.10;99.90;;;;;;4995763;28;20034;-74
2022/01/03 00:10:24;;;;;;;21.60;5.10;;;12.10;99.90;;;;;;4995622;28;20037;-74
2022/01/03 00:12:50;;;;;;;21.00;4.15;;;12.10;99.90;;;;;;4995949;28;20018;-74
2022/01/03 00:15:18;;;;;;;24.85;4.32;;;12.10;99.90;;;;;;4996147;28;20027;-74
2022/01/03 00:17:46;;;;;;;16.52;3.90;;;12.10;99.90;;;;;;4995568;28;20069;-74
2022/01/03 00:20:13;;;;;;;18.15;4.28;;;12.00;99.90;;;;;;4995478;28;20023;-74
2022/01/03 00:22:48;;;;;;;23.50;4.25;;;12.00;99.90;;;;;;4995785;28;20360;-74
2022/01/03 00:25:19;;;;;;;23.08;5.47;;;12.10;99.90;;;;;;4995410;28;20463;-74
2022/01/03 00:27:47;;;;;;;26.15;5.63;;;12.10;99.90;;;;;;4995365;28;20018;-74
2022/01/03 00:30:15;;;;;;;23.25;4.70;;;12.10;99.90;;;;;;4995227;28;20072;-74
2022/01/03 00:32:43;;;;;;;25.40;5.30;;;12.00;99.90;;;;;;4995530;28;20447;-74
2022/01/03 00:35:09;;;;;;;22.00;5.07;;;12.00;99.90;;;;;;4995226;28;20026;-75
2022/01/03 00:37:35;;;;;;;21.63;5.05;;;12.00;99.90;;;;;;4995173;28;20391;-75
2022/01/03 00:40:01;;;;;;;26.65;5.13;;;12.10;99.90;;;;;;4995114;28;20076;-74
2022/01/03 00:42:27;;;;;;;25.85;4.28;;;12.00;99.90;;;;;;4995183;28;20498;-74
2022/01/03 00:44:53;;;;;;;22.30;4.60;;;12.10;99.90;;;;;;4994999;28;20128;-74
2022/01/03 00:47:19;;;;;;;20.38;5.18;;;12.10;99.90;;;;;;4995002;28;20109;-74
2022/01/03 00:49:46;;;;;;;19.48;3.95;;;12.00;99.90;;;;;;4993729;28;20112;-74
2022/01/03 00:52:13;;;;;;;24.52;4.88;;;12.10;99.90;;;;;;4995069;28;20076;-74
2022/01/03 00:54:39;;;;;;;24.88;4.32;;;12.00;99.90;;;;;;4994914;28;20030;-74
2022/01/03 00:57:17;;;;;;;21.17;4.55;;;12.00;99.90;;;;;;4995091;28;20022;-74
2022/01/03 00:59:46;;;;;;;25.35;5.13;;;12.00;99.90;;;;;;4995075;28;20022;-74
2022/01/03 01:02:13;;;;;;;21.15;4.45;;;12.00;99.90;;;;;;4994756;28;20033;-74
2022/01/03 01:04:44;;;;;;;25.23;6.18;;;12.00;99.90;;;;;;4994951;28;20030;-74
2022/01/03 01:07:11;;;;;;;24.38;4.90;;;12.00;99.90;;;;;;4994959;28;20094;-75
2022/01/03 01:09:37;;;;;;;22.15;4.50;;;12.00;99.90;;;;;;4994588;28;20058;-74
2022/01/03 01:12:06;;;;;;;21.77;5.50;;;12.00;99.90;;;;;;4994447;28;20494;-74
2022/01/03 01:14:32;;;;;;;20.42;3.95;;;12.00;99.90;;;;;;4994999;28;20022;-74
2022/01/03 01:16:58;;;;;;;21.80;3.47;;;12.00;99.90;;;;;;4994434;28;20073;-74
2022/01/03 01:19:27;;;;;;;14.20;3.45;;;12.00;99.90;;;;;;4994437;28;20394;-74
2022/01/03 01:21:53;;;;;;;18.98;5.15;;;12.00;99.90;;;;;;4994384;28;20113;-74
2022/01/03 01:24:22;;;;;;;26.25;5.05;;;12.00;99.90;;;;;;4994383;28;20026;-74
2022/01/03 01:29:32;;;;;;;23.70;4.22;;;12.00;99.90;;;;;;4994555;28;20060;-75
2022/01/03 01:32:02;;;;;;;24.55;5.25;;;11.80;99.90;;;;;;4994175;28;20031;-74
2022/01/03 01:34:30;;;;;;;23.42;4.47;;;12.00;99.90;;;;;;4994513;28;20509;-75
2022/01/03 01:36:58;;;;;;;24.15;4.30;;;12.00;99.90;;;;;;4994142;28;20057;-74
2022/01/03 01:39:26;;;;;;;23.75;5.25;;;12.00;99.90;;;;;;4994110;28;20015;-75
2022/01/03 01:41:56;;;;;;;20.95;3.88;;;12.00;99.90;;;;;;4994298;28;20054;-74
2022/01/03 01:44:23;;;;;;;25.40;3.95;;;12.00;99.90;;;;;;4994130;28;20042;-74
2022/01/03 01:46:53;;;;;;;24.50;4.85;;;12.00;99.90;;;;;;4994613;28;20054;-74
2022/01/03 01:49:22;;;;;;;19.95;4.50;;;12.00;99.90;;;;;;4994349;28;20077;-75
2022/01/03 01:51:59;;;;;;;22.85;4.20;;;12.00;99.90;;;;;;4993895;28;20036;-74
2022/01/03 01:54:32;;;;;;;19.70;4.32;;;12.00;99.90;;;;;;4993234;28;20054;-74
2022/01/03 01:57:05;;;;;;;20.00;4.35;;;12.00;99.90;;;;;;4994186;28;20030;-74
2022/01/03 01:59:37;;;;;;;24.52;4.15;;;11.90;99.90;;;;;;4994180;28;20034;-75
2022/01/03 02:02:11;;;;;;;22.48;5.60;;;12.00;99.90;;;;;;4994121;28;20030;-74
2022/01/03 02:04:46;;;;;;;21.98;3.72;;;12.30;99.90;;;;;;4994429;28;20069;-74
2022/01/03 02:07:35;;;;;;;21.98;3.67;;;12.00;99.90;;;;;;4992578;28;20442;-75
2022/01/03 02:10:15;;;;;;;24.80;4.13;;;12.00;99.90;;;;;;4994127;28;20088;-74
2022/01/03 02:12:43;;;;;;;18.20;4.63;;;11.90;99.90;;;;;;4993799;28;20031;-75
2022/01/03 02:15:13;;;;;;;20.40;3.53;;;12.00;99.90;;;;;;4993747;28;20495;-75
2022/01/03 02:17:40;;;;;;;18.27;4.47;;;11.90;99.90;;;;;;4994083;28;20479;-74
2022/01/03 02:20:09;;;;;;;22.08;4.53;;;11.90;99.90;;;;;;4993678;28;20022;-74
2022/01/03 02:22:39;;;;;;;15.55;4.00;;;12.00;99.90;;;;;;4993964;28;20375;-74
2022/01/03 02:25:07;;;;;;;19.00;4.10;;;12.00;99.90;;;;;;4993965;28;20102;-75
2022/01/03 02:27:34;;;;;;;24.48;4.53;;;12.00;99.90;;;;;;4993630;28;20018;-74
2022/01/03 02:30:00;;;;;;;25.05;4.03;;;12.00;99.90;;;;;;4994147;28;20455;-74
2022/01/03 02:32:26;;;;;;;19.60;4.03;;;12.00;99.90;;;;;;4993798;28;20027;-75
2022/01/03 02:34:51;;;;;;;25.63;4.45;;;12.00;99.90;;;;;;4993847;28;20061;-74
2022/01/03 02:37:17;;;;;;;20.90;4.15;;;12.00;99.90;;;;;;4993543;28;20034;-74
2022/01/03 02:39:43;;;;;;;23.33;4.63;;;12.10;99.90;;;;;;4994125;28;20023;-75
2022/01/03 02:42:10;;;;;;;22.20;4.20;;;12.00;99.90;;;;;;4993503;28;20493;-74
2022/01/03 02:44:35;;;;;;;25.55;6.53;;;12.00;99.90;;;;;;4993380;28;20125;-74
2022/01/03 02:47:01;;;;;;;20.17;4.53;;;12.00;99.90;;;;;;4993500;28;20489;-75
2022/01/03 02:49:27;;;;;;;21.42;4.93;;;12.00;99.90;;;;;;4993454;28;20034;-74
2022/01/03 02:51:52;;;;;;;27.13;5.07;;;12.00;99.90;;;;;;4993141;28;20042;-74
2022/01/03 02:54:18;;;;;;;19.65;4.57;;;12.00;99.90;;;;;;4993738;28;20023;-74
2022/01/03 02:56:44;;;;;;;24.75;5.38;;;12.00;99.90;;;;;;4993410;28;20512;-74
2022/01/03 02:59:14;;;;;;;23.42;5.45;;;12.00;99.90;;;;;;4993404;28;20490;-74
2022/01/03 03:01:44;;;;;;;27.38;4.93;;;12.00;99.90;;;;;;4993621;28;20022;-74
2022/01/03 03:04:10;;;;;;;28.63;4.95;;;12.00;99.90;;;;;;4993902;28;20022;-74
2022/01/03 03:06:36;;;;;;;22.95;5.32;;;12.00;99.90;;;;;;4995212;28;20045;-74
2022/01/03 03:09:05;;;;;;;23.15;5.35;;;12.00;99.90;;;;;;4997138;28;20026;-74
2022/01/03 03:11:38;;;;;;;25.83;6.07;;;11.90;99.90;;;;;;4996999;28;20081;-75
2022/01/03 03:14:04;;;;;;;22.92;5.72;;;12.00;99.90;;;;;;4996774;28;20045;-74
2022/01/03 03:16:30;;;;;;;22.58;5.32;;;11.90;99.90;;;;;;4996983;28;20478;-74
2022/01/03 03:18:55;;;;;;;26.42;5.88;;;11.90;99.90;;;;;;4995390;28;20434;-74
2022/01/03 03:21:21;;;;;;;29.92;7.10;;;11.90;99.90;;;;;;4995422;28;20030;-75
2022/01/03 03:23:47;;;;;;;22.25;5.85;;;12.00;99.90;;;;;;4997108;28;20069;-74
2022/01/03 03:26:13;;;;;;;28.17;4.30;;;11.90;99.90;;;;;;4996536;28;20030;-74
2022/01/03 03:28:39;;;;;;;21.90;5.78;;;11.90;99.90;;;;;;4996522;28;20026;-74
2022/01/03 03:31:05;;;;;;;18.83;4.38;;;11.90;99.90;;;;;;4996361;28;20030;-74
2022/01/03 03:33:32;;;;;;;18.02;3.90;;;11.90;99.90;;;;;;4996652;28;20030;-74
2022/01/03 03:35:59;;;;;;;20.02;4.15;;;11.90;99.90;;;;;;4996373;28;20046;-74
2022/01/03 03:38:27;;;;;;;23.10;4.80;;;11.90;99.90;;;;;;4996595;28;20023;-74
2022/01/03 03:40:57;;;;;;;18.60;4.60;;;11.90;99.90;;;;;;4996352;28;20028;-75
2022/01/03 03:43:23;;;;;;;;;;;11.90;99.90;;;;;;4996983;28;20110;-74
2022/01/03 03:45:49;;;;;;;29.17;6.22;;;11.90;99.90;;;;;;4995848;28;20386;-74
2022/01/03 03:48:15;;;;;;;18.40;3.70;;;11.90;99.90;;;;;;4996162;28;20030;-74
2022/01/03 03:50:41;;;;;;;23.33;4.03;;;11.90;99.90;;;;;;4994702;28;20031;-75
2022/01/03 03:53:08;;;;;;;31.33;7.07;;;11.90;99.90;;;;;;4996057;28;20037;-74
2022/01/03 03:55:34;;;;;;;19.45;4.50;;;11.90;99.90;;;;;;4995987;28;20030;-74
2022/01/03 03:58:01;;;;;;;20.02;3.25;;;11.90;99.90;;;;;;4995981;28;20471;-74
2022/01/03 04:00:27;;;;;;;21.00;4.15;;;11.90;99.90;;;;;;4995913;28;20025;-74
2022/01/03 04:02:53;;;;;;;22.20;4.13;;;11.90;99.90;;;;;;4996168;28;20022;-74
2022/01/03 04:05:19;;;;;;;29.20;5.28;;;11.90;99.90;;;;;;4995855;28;20022;-74
2022/01/03 04:07:45;;;;;;;25.55;4.25;;;11.90;99.90;;;;;;4995779;28;20471;-75
2022/01/03 04:10:12;;;;;;;24.52;4.38;;;11.90;99.90;;;;;;4995927;28;20097;-74
2022/01/03 04:12:39;;;;;;;18.73;4.28;;;12.00;99.90;;;;;;4995939;28;20068;-74
2022/01/03 04:15:05;;;;;;;19.27;4.55;;;12.20;99.90;;;;;;4995925;28;20018;-74
2022/01/03 04:17:31;;;;;;;19.65;3.58;;;11.90;99.90;;;;;;4994775;28;20030;-75
2022/01/03 04:19:56;;;;;;;23.50;4.22;;;11.90;99.90;;;;;;4995795;28;20410;-74
2022/01/03 04:22:22;;;;;;;23.52;4.95;;;11.90;99.90;;;;;;4995483;28;20031;-74
2022/01/03 04:24:48;;;;;;;21.63;4.82;;;11.90;99.90;;;;;;4995463;28;20041;-74
2022/01/03 04:27:14;;;;;;;15.55;3.95;;;11.90;99.90;;;;;;4995416;28;20018;-74
2022/01/03 04:29:39;;;;;;;20.60;4.28;;;11.90;99.90;;;;;;4995623;28;20026;-75
2022/01/03 04:32:05;;;;;;;23.52;5.55;;;11.90;99.90;;;;;;4995528;28;20038;-74
2022/01/03 04:34:31;;;;;;;21.10;4.30;;;11.90;99.90;;;;;;4994016;28;20120;-74
2022/01/03 04:36:57;;;;;;;19.90;4.20;;;11.90;99.90;;;;;;4995305;28;20027;-74
2022/01/03 04:39:23;;;;;;;27.38;4.47;;;11.90;99.90;;;;;;4995172;28;20018;-74
2022/01/03 04:41:50;;;;;;;24.92;4.95;;;11.90;99.90;;;;;;4995067;28;20066;-74
2022/01/03 04:44:15;;;;;;;21.95;4.90;;;11.90;99.90;;;;;;4995181;28;20049;-74
2022/01/03 04:46:41;;;;;;;20.92;4.40;;;11.90;99.90;;;;;;4995352;28;20492;-75
2022/01/03 04:49:07;;;;;;;20.67;3.92;;;11.90;99.90;;;;;;4995529;28;20023;-74
2022/01/03 04:51:33;;;;;;;21.13;4.78;;;11.90;99.90;;;;;;4994873;28;20084;-74
2022/01/03 04:53:59;;;;;;;15.05;4.03;;;11.90;99.90;;;;;;4994895;28;20435;-74
2022/01/03 04:56:28;;;;;;;16.60;4.25;;;11.90;99.90;;;;;;4995131;28;20030;-74
2022/01/03 04:58:57;;;;;;;25.60;4.60;;;11.90;99.90;;;;;;4993518;28;20451;-75
2022/01/03 05:01:23;;;;;;;23.05;4.07;;;11.90;99.90;;;;;;4994737;28;20489;-74
2022/01/03 05:03:49;;;;;;;20.95;4.50;;;11.90;99.90;;;;;;4994723;28;20541;-75
2022/01/03 05:06:17;;;;;;;18.88;5.75;;;11.90;99.90;;;;;;4994649;28;20558;-74
2022/01/03 05:08:43;;;;;;;15.75;3.47;;;11.90;99.90;;;;;;4994587;28;20023;-74
2022/01/03 05:11:08;;;;;;;19.67;4.57;;;11.90;99.90;;;;;;4994802;28;20475;-74
2022/01/03 05:13:34;;;;;;;21.23;4.63;;;11.90;99.90;;;;;;4994598;28;20081;-74
2022/01/03 05:16:00;;;;;;;19.10;3.85;;;11.90;99.90;;;;;;4994526;28;20394;-75
2022/01/03 05:18:27;;;;;;;24.80;4.05;;;11.90;99.90;;;;;;4994472;28;20534;-74
2022/01/03 05:20:52;;;;;;;22.55;6.45;;;11.90;99.90;;;;;;4994718;28;20110;-74
2022/01/03 05:23:19;;;;;;;26.58;9.80;;;11.90;99.90;;;;;;4994938;28;20054;-74
2022/01/03 05:25:44;;;;;;;22.27;4.85;;;11.90;99.90;;;;;;4994637;28;20483;-74
2022/01/03 05:28:10;;;;;;;24.73;8.27;;;11.90;99.90;;;;;;4993095;28;20231;-74
2022/01/03 05:30:36;;;;;;;24.10;6.45;;;11.90;99.90;;;;;;4994448;28;20497;-74
2022/01/03 05:33:02;;;;;;;24.85;5.13;;;11.90;99.90;;;;;;4994546;28;20101;-74
2022/01/03 05:35:27;;;;;;;20.55;4.28;;;11.90;99.90;;;;;;4994219;28;20019;-74
2022/01/03 05:37:53;;;;;;;23.60;4.72;;;11.90;99.90;;;;;;4994230;28;20502;-74
2022/01/03 05:40:19;;;;;;;16.88;4.05;;;11.90;99.90;;;;;;4994045;28;20050;-74
2022/01/03 05:42:46;;;;;;;20.17;4.25;;;11.90;99.90;;;;;;4994404;28;20029;-74
2022/01/03 05:45:12;;;;;;;20.17;4.68;;;11.90;99.90;;;;;;4993946;28;20045;-75
2022/01/03 05:47:44;;;;;;;18.80;3.85;;;11.90;99.90;;;;;;4994331;28;20045;-74
2022/01/03 05:50:10;;;;;;;26.13;4.53;;;11.90;99.90;;;;;;4994127;28;20022;-74
2022/01/03 05:52:36;;;;;;;18.83;4.65;;;11.90;99.90;;;;;;4994461;28;20061;-74
2022/01/03 05:55:02;;;;;;;21.33;3.65;;;11.90;99.90;;;;;;4993992;28;20096;-74
2022/01/03 05:57:28;;;;;;;21.60;4.95;;;11.90;99.90;;;;;;4993978;28;20046;-74
2022/01/03 05:59:53;;;;;;;23.27;4.25;;;11.90;99.90;;;;;;4994175;28;20109;-74
2022/01/03 06:02:19;;;;;;;17.13;3.60;;;12.00;99.90;;;;;;4993883;28;20521;-74
2022/01/03 06:04:57;;;;;;;22.02;5.25;;;11.80;99.90;;;;;;4993923;28;20167;-74
2022/01/03 06:07:23;;;;;;;17.92;4.40;;;11.80;99.90;;;;;;4994387;28;20057;-74
2022/01/03 06:09:50;;;;;;;26.92;4.75;;;11.80;99.90;;;;;;4994336;28;20026;-74
2022/01/03 06:12:17;;;;;;;22.75;3.95;;;11.80;99.90;;;;;;4993995;28;20026;-74
2022/01/03 06:14:46;;;;;;;22.08;4.40;;;11.80;99.90;;;;;;4993753;28;20023;-74
2022/01/03 06:17:13;;;;;;;18.13;3.57;;;11.90;99.90;;;;;;4993734;28;20018;-75
2022/01/03 06:19:39;;;;;;;31.85;4.68;;;11.80;99.90;;;;;;4993724;28;20458;-74
2022/01/03 06:22:11;;;;;;;21.52;4.00;;;11.90;99.90;;;;;;4993715;28;20027;-74
2022/01/03 06:24:39;;;;;;;19.92;4.07;;;11.80;99.90;;;;;;4994012;28;20030;-74
2022/01/03 06:27:06;;;;;;;24.13;4.40;;;11.80;99.90;;;;;;4993731;28;20030;-74
2022/01/03 06:29:31;;;;;;;19.95;4.72;;;12.00;99.90;;;;;;4993980;28;20510;-74
2022/01/03 06:31:57;;;;;;;29.08;4.20;;;11.80;99.90;;;;;;4993586;28;20058;-74
2022/01/03 06:34:23;;;;;;;23.75;4.75;;;11.80;99.90;;;;;;4994185;28;20097;-74
2022/01/03 06:36:49;;;;;;;23.85;4.80;;;11.80;99.90;;;;;;4993884;28;20053;-74
2022/01/03 06:39:15;;;;;;;23.25;4.10;;;11.80;99.90;;;;;;4993590;28;20018;-74
2022/01/03 06:41:41;;;;;;;18.60;3.40;;;11.80;99.90;;;;;;4995470;28;20046;-74
2022/01/03 06:44:07;;;;;;;23.83;4.22;;;11.80;99.90;;;;;;4997359;28;20513;-74
2022/01/03 06:46:33;;;;;;;22.38;4.50;;;11.80;99.90;;;;;;4997562;28;20022;-75
2022/01/03 06:49:00;;;;;;;27.67;5.13;;;12.00;99.90;;;;;;4997238;28;20482;-73
2022/01/03 06:51:31;;;;;;;27.63;4.65;;;11.80;99.90;;;;;;4997108;28;20030;-75
2022/01/03 06:53:56;;;;;;;19.15;4.40;;;11.80;99.90;;;;;;4995623;28;20023;-74
2022/01/03 06:56:22;;;;;;;19.77;3.70;;;11.80;99.90;;;;;;4997360;28;20111;-75
2022/01/03 06:58:48;;;;;;;25.52;4.13;;;11.80;99.90;;;;;;4995799;28;20031;-74
2022/01/03 07:01:14;;;;;;;18.75;3.60;;;11.90;99.90;;;;;;4997023;28;20027;-74
2022/01/03 07:03:39;;;;;;;22.17;5.00;;;11.80;99.90;;;;;;4996996;28;20549;-74
2022/01/03 07:06:05;;;;;;;20.63;3.58;;;11.80;99.90;;;;;;4997239;28;20022;-74
2022/01/03 07:08:30;;;;;;;25.90;4.18;;;11.80;99.90;;;;;;4996947;28;20033;-75
2022/01/03 07:10:56;;;;;;;24.85;5.00;;;11.80;99.90;;;;;;4997088;28;20041;-74
2022/01/03 07:13:25;;;;;;;18.67;4.05;;;11.80;99.90;;;;;;4997354;28;20025;-74
2022/01/03 07:21:19;;;;;;;37.50;14.80;;;11.70;99.90;;;;;;4996986;28;20113;-74
2022/01/03 07:23:44;;;;;;;72.70;40.75;;;11.70;99.90;;;;;;4996597;28;20054;-74
2022/01/03 07:26:10;;;;;;;35.67;12.55;;;11.70;99.90;;;;;;4996553;28;20037;-74
2022/01/03 07:28:36;;;;;;;42.88;24.50;;;11.80;99.90;;;;;;4997095;28;20077;-75
2022/01/03 07:31:02;;;;;;;25.73;9.98;;;11.80;99.90;;;;;;4996433;28;20061;-74
2022/01/03 07:33:28;;;;;;;28.02;10.95;;;11.80;99.90;;;;;;4996959;28;20025;-74
2022/01/03 07:35:54;;;;;;;27.15;5.82;;;11.70;99.90;;;;;;4995157;28;20027;-75
2022/01/03 07:38:19;;;;;;;26.83;5.93;;;11.80;99.90;;;;;;4996602;28;20360;-74
2022/01/03 07:40:45;;;;;;;17.45;4.07;;;11.70;99.90;;;;;;4996523;28;20063;-74
2022/01/03 07:43:10;;;;;;;22.40;6.20;;;11.80;99.90;;;;;;4996508;28;20058;-73
2022/01/03 07:45:36;;;;;;;21.88;4.60;;;11.80;99.90;;;;;;4995868;28;20081;-75
2022/01/03 07:48:02;;;;;;;23.55;5.43;;;11.80;99.90;;;;;;4996190;28;20450;-74
2022/01/03 07:50:28;;;;;;;19.33;5.20;;;11.70;99.90;;;;;;4996049;28;20034;-74
2022/01/03 07:52:54;;;;;;;18.10;3.97;;;11.70;99.90;;;;;;4994958;28;20359;-74
2022/01/03 07:55:19;;;;;;;24.92;4.20;;;11.70;99.90;;;;;;4996057;28;20073;-74
2022/01/03 07:57:46;;;;;;;17.88;4.88;;;11.70;99.90;;;;;;4996277;28;20026;-74
2022/01/03 08:00:15;;;;;;;20.65;4.90;;;11.70;99.90;;;;;;4996233;28;20034;-74
2022/01/03 08:02:41;;;;;;;19.08;4.53;;;11.80;99.90;;;;;;4996215;28;20038;-75
2022/01/03 08:05:09;;;;;;;22.63;5.32;;;11.70;99.90;;;;;;4996387;28;20033;-74
2022/01/03 08:07:38;;;;;;;25.52;4.63;;;11.70;99.90;;;;;;4996096;28;20056;-74
2022/01/03 08:10:06;;;;;;;23.05;3.83;;;11.70;99.90;;;;;;4995345;28;20038;-76
2022/01/03 08:12:32;;;;;;;24.17;4.55;;;11.80;99.90;;;;;;4995645;28;20022;-74
2022/01/03 08:14:58;;;;;;;24.38;4.68;;;11.80;99.90;;;;;;4995828;28;20034;-75
2022/01/03 08:17:23;;;;;;;20.55;4.93;;;11.80;99.90;;;;;;4995749;28;20023;-75
2022/01/03 08:19:49;;;;;;;24.80;4.43;;;11.80;99.90;;;;;;4995574;28;20037;-73
2022/01/03 08:22:15;;;;;;;20.55;4.03;;;11.80;99.90;;;;;;4996376;28;20033;-75
2022/01/03 08:24:40;;;;;;;24.60;4.13;;;11.90;99.90;;;;;;4995803;28;20429;-74
2022/01/03 08:27:07;;;;;;;22.25;4.63;;;11.90;99.90;;;;;;4995999;28;20026;-78
2022/01/03 08:29:33;;;;;;;24.75;5.55;;;11.90;99.90;;;;;;4995447;28;20520;-76
2022/01/03 08:31:59;;;;;;;25.05;5.32;;;12.10;99.90;;;;;;4995295;28;20102;-80
2022/01/03 08:34:25;;;;;;;21.48;3.80;;;12.00;99.90;;;;;;4995323;28;20034;-74
2022/01/03 08:36:51;;;;;;;24.45;4.47;;;12.00;99.90;;;;;;4995271;28;20065;-74
2022/01/03 08:39:16;;;;;;;21.95;4.05;;;12.00;99.90;;;;;;4995447;28;20026;-74
2022/01/03 08:41:42;;;;;;;32.38;6.00;;;12.00;99.90;;;;;;4995338;28;20101;-75
2022/01/03 08:44:08;;;;;;;27.63;5.05;;;12.00;99.90;;;;;;4995186;28;20414;-72
2022/01/03 08:46:34;;;;;;;24.60;4.93;;;12.10;99.90;;;;;;4995853;28;20023;-74
2022/01/03 08:49:00;;;;;;;18.48;4.20;;;12.10;99.90;;;;;;4995049;28;20437;-74
2022/01/03 08:51:25;;;;;;;31.95;4.93;;;12.10;99.90;;;;;;4994947;28;20562;-75
2022/01/03 08:53:52;;;;;;;18.38;3.83;;;12.10;99.90;;;;;;4993647;28;20026;-72
2022/01/03 08:56:18;;;;;;;15.43;4.93;;;12.10;99.90;;;;;;4994913;28;20042;-73
2022/01/03 08:58:44;;;;;;;28.23;5.38;;;12.20;99.90;;;;;;4995112;28;20030;-78
2022/01/03 09:01:10;;;;;;;18.30;3.88;;;12.20;99.90;;;;;;4994839;28;20022;-78
2022/01/03 09:03:35;;;;;;;18.63;4.20;;;12.20;99.90;;;;;;4994759;28;20101;-75
2022/01/03 09:06:01;;;;;;;22.67;4.43;;;12.20;99.90;;;;;;4995152;28;20037;-75
2022/01/03 09:08:27;;;;;;;21.05;4.00;;;12.30;99.90;;;;;;4994666;28;20037;-80
2022/01/03 09:10:53;;;;;;;20.17;3.33;;;12.30;99.90;;;;;;4994599;28;20030;-78
2022/01/03 09:13:21;;;;;;;31.48;14.68;;;12.30;99.90;;;;;;4994444;28;20541;-79
2022/01/03 09:15:48;;;;;;;28.75;11.50;;;12.30;99.90;;;;;;4994629;28;20077;-81
2022/01/03 09:18:16;;;;;;;18.75;4.15;;;12.40;99.90;;;;;;4995054;28;20050;-78
2022/01/03 09:20:42;;;;;;;26.70;4.28;;;12.40;99.90;;;;;;4995244;28;20030;-77
2022/01/03 09:23:15;;;;;;;25.50;10.02;;;12.40;99.90;;;;;;4994660;28;20027;-79
2022/01/03 09:30:52;;;;;;;25.73;5.50;;;12.40;99.90;;;;;;4994793;28;20117;-76
2022/01/03 09:33:18;;;;;;;26.23;4.35;;;12.50;99.90;;;;;;4994265;28;20022;-75
2022/01/03 09:35:44;;;;;;;20.73;4.63;;;12.50;99.90;;;;;;4994137;28;20562;-75
2022/01/03 09:38:10;;;;;;;20.70;4.43;;;12.50;99.90;;;;;;4992664;28;20034;-75
2022/01/03 09:40:39;;;;;;;21.40;3.42;;;12.50;99.90;;;;;;4993971;28;20022;-75
2022/01/03 09:43:08;;;;;;;22.58;3.88;;;12.50;99.90;;;;;;4994397;28;20033;-75
2022/01/03 09:45:37;;;;;;;17.42;3.88;;;12.60;99.90;;;;;;4993744;28;20395;-75
2022/01/03 09:48:04;;;;;;;27.67;5.10;;;12.70;99.90;;;;;;4992825;28;20058;-75
2022/01/03 09:50:33;;;;;;;25.70;4.28;;;12.60;99.90;;;;;;4994185;28;20509;-75
2022/01/03 09:53:00;;;;;;;25.38;5.47;;;12.60;99.90;;;;;;4993970;28;20030;-75
2022/01/03 09:55:26;;;;;;;18.98;4.05;;;12.70;99.90;;;;;;4993944;28;20025;-74
2022/01/03 09:57:52;;;;;;;21.80;4.25;;;12.70;99.90;;;;;;4994212;28;20102;-75
2022/01/03 10:00:22;;;;;;;17.13;3.40;;;12.80;99.90;;;;;;4993943;28;20452;-75
2022/01/03 10:02:52;;;;;;;15.95;3.80;;;12.90;99.90;;;;;;4994233;28;20062;-75
2022/01/03 10:05:20;;;;;;;18.33;4.28;;;12.80;99.90;;;;;;4993912;28;20030;-75
2022/01/03 10:07:46;;;;;;;24.67;4.43;;;12.90;99.90;;;;;;4993870;28;20022;-75
2022/01/03 10:10:13;;;;;;;20.85;3.95;;;12.90;99.90;;;;;;4993839;28;20026;-75
2022/01/03 10:12:39;;;;;;;22.67;4.18;;;12.90;99.90;;;;;;4993763;28;20026;-74
2022/01/03 10:15:07;;;;;;;21.15;3.63;;;12.90;99.90;;;;;;4993667;28;20049;-74
2022/01/03 10:17:41;;;;;;;18.67;4.20;;;13.10;99.90;;;;;;4997526;28;20462;-75
2022/01/03 10:20:10;;;;;;;26.63;6.75;;;13.00;99.90;;;;;;4997602;28;20022;-74
2022/01/03 10:22:38;;;;;;;22.15;5.88;;;13.00;99.90;;;;;;4998295;28;20022;-75
2022/01/03 10:25:23;;;;;;;24.27;5.90;;;13.00;99.90;;;;;;4997695;28;20057;-75
2022/01/03 10:27:59;;;;;;;21.13;5.50;;;13.00;99.90;;;;;;4997632;28;20101;-75
2022/01/03 10:30:38;;;;;;;16.75;3.92;;;13.00;99.90;;;;;;4997910;28;20027;-75
2022/01/03 10:33:10;;;;;;;14.60;6.00;;;13.00;99.90;;;;;;4997878;28;20030;-75
2022/01/03 10:35:41;;;;;;;19.48;5.22;;;13.00;99.90;;;;;;4997835;28;20022;-75
2022/01/03 10:38:08;;;;;;;20.70;5.72;;;12.90;99.90;;;;;;4997568;28;20022;-75
2022/01/03 10:40:34;;;;;;;26.17;5.50;;;12.90;99.90;;;;;;4997355;28;20483;-75
2022/01/03 10:43:19;;;;;;;21.83;5.53;;;12.90;99.90;;;;;;4997353;28;20024;-75
2022/01/03 10:45:46;;;;;;;16.58;4.40;;;13.00;99.90;;;;;;4996875;28;20039;-74
2022/01/03 10:48:30;;;;;;;19.35;4.38;;;13.00;99.90;;;;;;4997262;28;20023;-75
2022/01/03 10:50:57;;;;;;;17.27;3.70;;;13.00;99.90;;;;;;4997679;28;20430;-75
2022/01/03 10:53:37;;;;;;;15.85;3.65;;;13.00;99.90;;;;;;4997193;28;20025;-75
2022/01/03 10:56:28;;;;;;;15.43;3.55;;;13.00;99.90;;;;;;4997141;28;20026;-75
2022/01/03 10:58:59;;;;;;;14.98;3.00;;;13.00;99.90;;;;;;4997427;28;20025;-75
2022/01/03 11:01:27;;;;;;;12.48;3.42;;;13.00;99.90;;;;;;4997090;28;20497;-74
2022/01/03 11:03:55;;;;;;;15.00;2.90;;;13.00;99.90;;;;;;4997035;28;20034;-74
2022/01/03 11:06:24;;;;;;;17.52;4.05;;;13.00;99.90;;;;;;4997248;28;20101;-75
2022/01/03 11:11:42;;;;;;;13.70;3.08;;;13.10;99.90;;;;;;4996555;28;20037;-74
2022/01/03 11:14:10;;;;;;;16.15;4.57;;;13.10;99.90;;;;;;4996654;28;20061;-75
2022/01/03 11:16:41;;;;;;;11.98;3.03;;;13.20;99.90;;;;;;4996762;28;20022;-75
2022/01/03 11:19:07;;;;;;;16.30;3.75;;;13.10;99.90;;;;;;4997411;28;20019;-75
2022/01/03 11:21:36;;;;;;;8.40;2.67;;;13.10;99.90;;;;;;4996694;28;20022;-75
2022/01/03 11:24:04;;;;;;;12.27;3.50;;;13.10;99.90;;;;;;4996924;28;20026;-75
2022/01/03 11:26:33;;;;;;;32.00;11.77;;;13.30;99.90;;;;;;4996448;28;20041;-75
2022/01/03 11:29:03;;;;;;;26.25;10.07;;;13.30;99.90;;;;;;4996538;28;20023;-75
2022/01/03 11:31:33;;;;;;;20.88;8.80;;;13.30;99.90;;;;;;4996518;28;20061;-75
2022/01/03 11:34:00;;;;;;;21.67;7.75;;;13.30;99.90;;;;;;4996451;28;20029;-75
2022/01/03 11:36:27;;;;;;;23.65;11.38;;;13.40;99.90;;;;;;4996711;28;20022;-75
2022/01/03 11:38:56;;;;;;;18.27;8.70;;;13.40;99.90;;;;;;4996929;28;20011;-74
2022/01/03 11:41:22;;;;;;;19.17;7.38;;;13.40;99.90;;;;;;4996378;28;20089;-75
2022/01/03 11:43:49;;;;;;;16.92;9.75;;;13.40;99.90;;;;;;4996055;28;20022;-75
2022/01/03 11:46:14;;;;;;;12.93;5.25;;;13.40;99.90;;;;;;4994957;28;20040;-74
2022/01/03 11:48:40;;;;;;;22.73;11.35;;;13.40;99.90;;;;;;4996479;28;20109;-75
2022/01/03 11:51:11;;;;;;;20.25;11.93;;;13.40;99.90;;;;;;4996139;28;20030;-75
2022/01/03 11:53:40;;;;;;;;;;;13.40;99.90;;;;;;4996577;28;20022;-76
2022/01/03 11:56:12;;;;;;;17.58;12.35;;;13.40;99.90;;;;;;4996084;28;20365;-75
2022/01/03 12:03:36;;;;;;;16.73;13.23;;;13.40;99.90;;;;;;4996060;28;20031;-75
2022/01/03 12:04:28;;;;;;;11.95;4.68;;;13.40;99.90;;;;;;4995948;28;20532;-75
2022/01/03 12:07:14;;;;;;;9.60;6.05;;;13.40;99.90;;;;;;4995885;28;20054;-75
2022/01/03 12:09:50;;;;;;;6.88;2.88;;;13.40;99.90;;;;;;4996385;28;20108;-75
2022/01/03 12:12:34;;;;;;;6.57;2.75;;;13.40;99.90;;;;;;4996039;28;20026;-75
2022/01/03 12:15:02;;;;;;;8.35;4.25;;;13.40;99.90;;;;;;4995738;28;20031;-75
2022/01/03 12:17:46;;;;;;;9.68;2.55;;;13.30;99.90;;;;;;4995638;28;20526;-75
2022/01/03 12:20:12;;;;;;;8.75;2.33;;;13.20;99.90;;;;;;4994287;28;20065;-75
2022/01/03 12:22:55;;;;;;;6.15;2.25;;;13.20;99.90;;;;;;4995846;28;20058;-75
2022/01/03 12:25:25;;;;;;;9.23;4.97;;;13.20;99.90;;;;;;4995512;28;20070;-75
2022/01/03 12:27:56;;;;;;;7.80;4.32;;;13.10;99.90;;;;;;4996061;28;20026;-75
2022/01/03 12:30:25;;;;;;;7.07;3.15;;;13.20;99.90;;;;;;4996013;28;20034;-75
2022/01/03 12:33:06;;;;;;;6.18;2.40;;;13.10;99.90;;;;;;4995308;28;20023;-75
2022/01/03 12:35:34;;;;;;;7.45;3.13;;;13.20;99.90;;;;;;4995338;28;20475;-75
2022/01/03 12:38:05;;;;;;;7.15;3.08;;;13.10;99.90;;;;;;4995012;28;20018;-75
2022/01/03 12:40:47;;;;;;;5.80;3.08;;;13.10;99.90;;;;;;4995122;28;20026;-75
2022/01/03 12:43:14;;;;;;;5.13;1.83;;;13.00;99.90;;;;;;4995753;28;20026;-75
2022/01/03 12:45:40;;;;;;;6.50;2.17;;;13.00;99.90;;;;;;4994933;28;20038;-75
2022/01/03 12:48:11;;;;;;;7.68;1.77;;;13.00;99.90;;;;;;4995080;28;20446;-75
2022/01/03 12:50:39;;;;;;;3.28;1.40;;;13.10;99.90;;;;;;4995238;28;20037;-75
2022/01/03 12:53:32;;;;;;;5.82;1.40;;;13.10;99.90;;;;;;4994993;28;20029;-74
2022/01/03 12:56:01;;;;;;;2.90;2.10;;;13.10;99.90;;;;;;4995093;28;20114;-75
2022/01/03 12:58:26;;;;;;;4.05;1.92;;;13.10;99.90;;;;;;4995165;28;20097;-75
2022/01/03 13:00:53;;;;;;;4.60;2.10;;;13.10;99.90;;;;;;4994848;28;20117;-75